sensor_id;sensor_type;location;lat;lon;timestamp;pressure;altitude;pressure_sealevel;temperature
74043;BMP280;62384;53.600;10.040;2023-04-24T00:01:29;67708.44;;;13.13
74043;BMP280;62384;53.600;10.040;2023-04-24T00:03:56;66789.91;;;13.11
74043;BMP280;62384;53.600;10.040;2023-04-24T00:06:25;66299.28;;;13.10
74043;BMP280;62384;53.600;10.040;2023-04-24T00:08:57;66751.81;;;13.07
74043;BMP280;62384;53.600;10.040;2023-04-24T00:11:23;66589.19;;;12.96
74043;BMP280;62384;53.600;10.040;2023-04-24T00:13:48;65927.81;;;12.95
74043;BMP280;62384;53.600;10.040;2023-04-24T00:16:13;66494.78;;;12.98
74043;BMP280;62384;53.600;10.040;2023-04-24T00:18:38;66398.91;;;12.98
74043;BMP280;62384;53.600;10.040;2023-04-24T00:21:04;65986.66;;;12.92
74043;BMP280;62384;53.600;10.040;2023-04-24T00:23:30;65991.72;;;12.95
74043;BMP280;62384;53.600;10.040;2023-04-24T00:25:56;66095.03;;;12.83
74043;BMP280;62384;53.600;10.040;2023-04-24T00:28:22;66353.72;;;13.03
74043;BMP280;62384;53.600;10.040;2023-04-24T00:30:47;66115.47;;;12.99
74043;BMP280;62384;53.600;10.040;2023-04-24T00:33:12;66243.53;;;13.02
74043;BMP280;62384;53.600;10.040;2023-04-24T00:35:37;65776.81;;;13.04
74043;BMP280;62384;53.600;10.040;2023-04-24T00:38:03;65871.91;;;12.95
74043;BMP280;62384;53.600;10.040;2023-04-24T00:40:28;65803.66;;;12.96
74043;BMP280;62384;53.600;10.040;2023-04-24T00:42:54;66147.41;;;12.99
74043;BMP280;62384;53.600;10.040;2023-04-24T00:45:19;66216.16;;;12.99
74043;BMP280;62384;53.600;10.040;2023-04-24T00:47:45;65927.59;;;12.92
74043;BMP280;62384;53.600;10.040;2023-04-24T00:50:11;66481.91;;;12.92
74043;BMP280;62384;53.600;10.040;2023-04-24T00:52:38;65769.28;;;12.93
74043;BMP280;62384;53.600;10.040;2023-04-24T00:55:06;65618.28;;;12.91
74043;BMP280;62384;53.600;10.040;2023-04-24T00:57:32;65996.78;;;12.86
74043;BMP280;62384;53.600;10.040;2023-04-24T00:59:58;66131.31;;;12.82
74043;BMP280;62384;53.600;10.040;2023-04-24T01:02:23;65176.53;;;12.80
74043;BMP280;62384;53.600;10.040;2023-04-24T01:04:52;65227.78;;;12.84
74043;BMP280;62384;53.600;10.040;2023-04-24T01:07:19;66115.63;;;12.85
74043;BMP280;62384;53.600;10.040;2023-04-24T01:09:47;66299.03;;;12.82
74043;BMP280;62384;53.600;10.040;2023-04-24T01:12:14;65696.22;;;12.89
74043;BMP280;62384;53.600;10.040;2023-04-24T01:14:40;66644.13;;;12.95
74043;BMP280;62384;53.600;10.040;2023-04-24T01:17:05;66469.28;;;12.90
74043;BMP280;62384;53.600;10.040;2023-04-24T01:19:31;66428.09;;;12.86
74043;BMP280;62384;53.600;10.040;2023-04-24T01:21:58;66582.31;;;12.89
74043;BMP280;62384;53.600;10.040;2023-04-24T01:24:24;66158.44;;;12.83
74043;BMP280;62384;53.600;10.040;2023-04-24T01:26:49;66668.44;;;12.71
74043;BMP280;62384;53.600;10.040;2023-04-24T01:29:15;66712.22;;;12.69
74043;BMP280;62384;53.600;10.040;2023-04-24T01:31:40;66332.34;;;12.73
74043;BMP280;62384;53.600;10.040;2023-04-24T01:34:06;66690.25;;;12.71
74043;BMP280;62384;53.600;10.040;2023-04-24T01:36:34;66782.63;;;12.68
74043;BMP280;62384;53.600;10.040;2023-04-24T01:39:00;66942.47;;;12.73
74043;BMP280;62384;53.600;10.040;2023-04-24T01:41:26;67054.72;;;12.82
74043;BMP280;62384;53.600;10.040;2023-04-24T01:43:51;67168.94;;;12.79
74043;BMP280;62384;53.600;10.040;2023-04-24T01:46:17;67534.59;;;12.82
74043;BMP280;62384;53.600;10.040;2023-04-24T01:48:42;67472.69;;;12.76
74043;BMP280;62384;53.600;10.040;2023-04-24T01:51:09;67872.72;;;12.85
74043;BMP280;62384;53.600;10.040;2023-04-24T01:53:35;67946.16;;;12.86
74043;BMP280;62384;53.600;10.040;2023-04-24T01:56:00;67899.56;;;12.90
74043;BMP280;62384;53.600;10.040;2023-04-24T01:58:26;68227.28;;;12.90
74043;BMP280;62384;53.600;10.040;2023-04-24T02:00:52;68496.03;;;12.77
74043;BMP280;62384;53.600;10.040;2023-04-24T02:03:17;68878.81;;;12.84
74043;BMP280;62384;53.600;10.040;2023-04-24T02:05:45;69116.22;;;12.79
74043;BMP280;62384;53.600;10.040;2023-04-24T02:08:11;69807.16;;;12.92
74043;BMP280;62384;53.600;10.040;2023-04-24T02:10:36;69539.00;;;12.75
74043;BMP280;62384;53.600;10.040;2023-04-24T02:13:01;69466.34;;;12.80
74043;BMP280;62384;53.600;10.040;2023-04-24T02:15:27;69408.84;;;12.78
74043;BMP280;62384;53.600;10.040;2023-04-24T02:17:53;69825.34;;;12.71
74043;BMP280;62384;53.600;10.040;2023-04-24T02:20:18;69611.38;;;12.63
74043;BMP280;62384;53.600;10.040;2023-04-24T02:22:43;69648.16;;;12.62
74043;BMP280;62384;53.600;10.040;2023-04-24T02:25:08;69175.34;;;12.53
74043;BMP280;62384;53.600;10.040;2023-04-24T02:27:34;69427.09;;;12.60
74043;BMP280;62384;53.600;10.040;2023-04-24T02:29:59;69141.22;;;12.54
74043;BMP280;62384;53.600;10.040;2023-04-24T02:32:25;68743.56;;;12.48
74043;BMP280;62384;53.600;10.040;2023-04-24T02:34:51;68509.47;;;12.43
74043;BMP280;62384;53.600;10.040;2023-04-24T02:37:16;68320.06;;;12.40
74043;BMP280;62384;53.600;10.040;2023-04-24T02:39:41;68121.03;;;12.38
74043;BMP280;62384;53.600;10.040;2023-04-24T02:42:08;68262.25;;;12.35
74043;BMP280;62384;53.600;10.040;2023-04-24T02:44:33;67966.00;;;12.40
74043;BMP280;62384;53.600;10.040;2023-04-24T02:47:00;68092.63;;;12.41
74043;BMP280;62384;53.600;10.040;2023-04-24T02:49:25;68047.50;;;12.39
74043;BMP280;62384;53.600;10.040;2023-04-24T02:51:52;68045.13;;;12.34
74043;BMP280;62384;53.600;10.040;2023-04-24T02:54:17;68243.53;;;12.27
74043;BMP280;62384;53.600;10.040;2023-04-24T02:56:42;68251.91;;;12.19
74043;BMP280;62384;53.600;10.040;2023-04-24T02:59:08;68203.00;;;12.18
74043;BMP280;62384;53.600;10.040;2023-04-24T03:01:35;68345.59;;;12.20
74043;BMP280;62384;53.600;10.040;2023-04-24T03:04:00;68589.31;;;12.21
74043;BMP280;62384;53.600;10.040;2023-04-24T03:06:25;68555.59;;;12.14
74043;BMP280;62384;53.600;10.040;2023-04-24T03:08:51;68694.50;;;12.15
74043;BMP280;62384;53.600;10.040;2023-04-24T03:11:17;68988.31;;;12.16
74043;BMP280;62384;53.600;10.040;2023-04-24T03:13:42;69033.97;;;12.19
74043;BMP280;62384;53.600;10.040;2023-04-24T03:16:07;69301.34;;;12.17
74043;BMP280;62384;53.600;10.040;2023-04-24T03:18:33;69258.75;;;12.17
74043;BMP280;62384;53.600;10.040;2023-04-24T03:20:58;69027.84;;;12.13
74043;BMP280;62384;53.600;10.040;2023-04-24T03:23:24;69444.25;;;12.11
74043;BMP280;62384;53.600;10.040;2023-04-24T03:25:49;69628.75;;;12.02
74043;BMP280;62384;53.600;10.040;2023-04-24T03:28:14;69624.84;;;11.90
74043;BMP280;62384;53.600;10.040;2023-04-24T03:30:40;69927.97;;;12.03
74043;BMP280;62384;53.600;10.040;2023-04-24T03:33:05;70084.50;;;12.02
74043;BMP280;62384;53.600;10.040;2023-04-24T03:35:30;70099.41;;;12.04
74043;BMP280;62384;53.600;10.040;2023-04-24T03:37:56;69955.88;;;11.94
74043;BMP280;62384;53.600;10.040;2023-04-24T03:40:22;69994.63;;;11.98
74043;BMP280;62384;53.600;10.040;2023-04-24T03:42:47;70087.47;;;11.90
74043;BMP280;62384;53.600;10.040;2023-04-24T03:45:12;70207.25;;;11.90
74043;BMP280;62384;53.600;10.040;2023-04-24T03:47:38;70478.78;;;11.90
74043;BMP280;62384;53.600;10.040;2023-04-24T03:50:03;70706.69;;;11.89
74043;BMP280;62384;53.600;10.040;2023-04-24T03:52:29;70457.13;;;11.79
74043;BMP280;62384;53.600;10.040;2023-04-24T03:54:54;70419.38;;;11.76
74043;BMP280;62384;53.600;10.040;2023-04-24T03:57:20;70765.91;;;11.79
74043;BMP280;62384;53.600;10.040;2023-04-24T03:59:46;71027.88;;;11.80
74043;BMP280;62384;53.600;10.040;2023-04-24T04:02:11;70911.25;;;11.81
74043;BMP280;62384;53.600;10.040;2023-04-24T04:04:36;71418.72;;;11.72
74043;BMP280;62384;53.600;10.040;2023-04-24T04:07:01;72192.03;;;11.78
74043;BMP280;62384;53.600;10.040;2023-04-24T04:09:28;72127.06;;;11.75
74043;BMP280;62384;53.600;10.040;2023-04-24T04:11:53;72314.00;;;11.75
74043;BMP280;62384;53.600;10.040;2023-04-24T04:14:18;72392.19;;;11.69
74043;BMP280;62384;53.600;10.040;2023-04-24T04:16:44;72672.56;;;11.79
74043;BMP280;62384;53.600;10.040;2023-04-24T04:19:10;72601.69;;;11.78
74043;BMP280;62384;53.600;10.040;2023-04-24T04:21:35;73117.47;;;11.79
74043;BMP280;62384;53.600;10.040;2023-04-24T04:24:00;73518.84;;;11.83
74043;BMP280;62384;53.600;10.040;2023-04-24T04:26:26;73582.34;;;11.85
74043;BMP280;62384;53.600;10.040;2023-04-24T04:28:52;73872.78;;;11.97
74043;BMP280;62384;53.600;10.040;2023-04-24T04:31:19;73943.56;;;11.94
74043;BMP280;62384;53.600;10.040;2023-04-24T04:33:45;73917.59;;;11.85
74043;BMP280;62384;53.600;10.040;2023-04-24T04:36:10;73891.75;;;11.78
74043;BMP280;62384;53.600;10.040;2023-04-24T04:38:37;74019.66;;;11.78
74043;BMP280;62384;53.600;10.040;2023-04-24T04:41:03;74028.47;;;11.72
74043;BMP280;62384;53.600;10.040;2023-04-24T04:43:28;74233.78;;;11.86
74043;BMP280;62384;53.600;10.040;2023-04-24T04:45:54;74206.69;;;11.88
74043;BMP280;62384;53.600;10.040;2023-04-24T04:48:21;74083.63;;;11.90
74043;BMP280;62384;53.600;10.040;2023-04-24T04:50:47;74193.34;;;11.88
74043;BMP280;62384;53.600;10.040;2023-04-24T04:53:12;74108.81;;;11.94
74043;BMP280;62384;53.600;10.040;2023-04-24T04:55:38;74295.09;;;11.98
74043;BMP280;62384;53.600;10.040;2023-04-24T04:58:06;74380.34;;;12.20
74043;BMP280;62384;53.600;10.040;2023-04-24T05:00:32;74613.75;;;12.04
74043;BMP280;62384;53.600;10.040;2023-04-24T05:03:01;74588.56;;;12.35
74043;BMP280;62384;53.600;10.040;2023-04-24T05:05:26;74602.09;;;12.28
74043;BMP280;62384;53.600;10.040;2023-04-24T05:07:51;74558.53;;;12.32
74043;BMP280;62384;53.600;10.040;2023-04-24T05:10:16;74575.50;;;12.18
74043;BMP280;62384;53.600;10.040;2023-04-24T05:12:42;74585.28;;;12.22
74043;BMP280;62384;53.600;10.040;2023-04-24T05:15:07;74552.94;;;12.14
74043;BMP280;62384;53.600;10.040;2023-04-24T05:17:33;74460.31;;;12.08
74043;BMP280;62384;53.600;10.040;2023-04-24T05:19:58;74432.91;;;12.14
74043;BMP280;62384;53.600;10.040;2023-04-24T05:22:24;74480.28;;;12.24
74043;BMP280;62384;53.600;10.040;2023-04-24T05:24:49;74592.41;;;12.26
74043;BMP280;62384;53.600;10.040;2023-04-24T05:27:15;74631.75;;;12.23
74043;BMP280;62384;53.600;10.040;2023-04-24T05:29:40;74559.75;;;12.23
74043;BMP280;62384;53.600;10.040;2023-04-24T05:32:06;74545.72;;;12.20
74043;BMP280;62384;53.600;10.040;2023-04-24T05:34:31;74613.56;;;12.33
74043;BMP280;62384;53.600;10.040;2023-04-24T05:36:57;74666.44;;;12.23
74043;BMP280;62384;53.600;10.040;2023-04-24T05:39:22;74573.88;;;12.29
74043;BMP280;62384;53.600;10.040;2023-04-24T05:41:47;74512.94;;;12.27
74043;BMP280;62384;53.600;10.040;2023-04-24T05:44:13;74606.44;;;12.29
74043;BMP280;62384;53.600;10.040;2023-04-24T05:46:38;74672.16;;;12.31
74043;BMP280;62384;53.600;10.040;2023-04-24T05:49:03;74728.84;;;12.34
74043;BMP280;62384;53.600;10.040;2023-04-24T05:51:28;74882.63;;;12.35
74043;BMP280;62384;53.600;10.040;2023-04-24T05:53:54;74820.28;;;12.37
74043;BMP280;62384;53.600;10.040;2023-04-24T05:56:20;74774.78;;;12.34
74043;BMP280;62384;53.600;10.040;2023-04-24T05:58:46;74793.88;;;12.32
74043;BMP280;62384;53.600;10.040;2023-04-24T06:01:11;74879.50;;;12.47
74043;BMP280;62384;53.600;10.040;2023-04-24T06:03:38;74955.06;;;12.52
74043;BMP280;62384;53.600;10.040;2023-04-24T06:06:05;74876.22;;;12.56
74043;BMP280;62384;53.600;10.040;2023-04-24T06:08:31;74726.72;;;12.65
74043;BMP280;62384;53.600;10.040;2023-04-24T06:10:56;74966.97;;;12.65
74043;BMP280;62384;53.600;10.040;2023-04-24T06:13:22;75050.16;;;12.63
74043;BMP280;62384;53.600;10.040;2023-04-24T06:15:47;75205.28;;;12.68
74043;BMP280;62384;53.600;10.040;2023-04-24T06:18:12;75151.63;;;12.73
74043;BMP280;62384;53.600;10.040;2023-04-24T06:20:38;75180.84;;;12.80
74043;BMP280;62384;53.600;10.040;2023-04-24T06:23:03;75318.59;;;12.88
74043;BMP280;62384;53.600;10.040;2023-04-24T06:25:28;75322.88;;;12.97
74043;BMP280;62384;53.600;10.040;2023-04-24T06:27:54;75628.63;;;12.91
74043;BMP280;62384;53.600;10.040;2023-04-24T06:30:20;75647.91;;;12.91
74043;BMP280;62384;53.600;10.040;2023-04-24T06:32:46;75671.28;;;12.98
74043;BMP280;62384;53.600;10.040;2023-04-24T06:35:11;75659.78;;;13.02
74043;BMP280;62384;53.600;10.040;2023-04-24T06:37:38;75717.59;;;13.20
74043;BMP280;62384;53.600;10.040;2023-04-24T06:40:04;75830.19;;;13.25
74043;BMP280;62384;53.600;10.040;2023-04-24T06:42:30;75919.63;;;13.36
74043;BMP280;62384;53.600;10.040;2023-04-24T06:44:55;76037.94;;;13.22
74043;BMP280;62384;53.600;10.040;2023-04-24T06:47:21;75972.41;;;13.26
74043;BMP280;62384;53.600;10.040;2023-04-24T06:49:46;75989.44;;;13.24
74043;BMP280;62384;53.600;10.040;2023-04-24T06:52:11;75990.16;;;13.27
74043;BMP280;62384;53.600;10.040;2023-04-24T06:54:37;76072.22;;;13.38
74043;BMP280;62384;53.600;10.040;2023-04-24T06:57:02;76165.75;;;13.45
74043;BMP280;62384;53.600;10.040;2023-04-24T06:59:28;76134.69;;;13.60
74043;BMP280;62384;53.600;10.040;2023-04-24T07:01:54;76213.00;;;13.63
74043;BMP280;62384;53.600;10.040;2023-04-24T07:04:19;76247.25;;;13.63
74043;BMP280;62384;53.600;10.040;2023-04-24T07:06:45;76375.44;;;13.67
74043;BMP280;62384;53.600;10.040;2023-04-24T07:09:11;76402.19;;;13.67
74043;BMP280;62384;53.600;10.040;2023-04-24T07:11:38;76426.44;;;13.70
74043;BMP280;62384;53.600;10.040;2023-04-24T07:14:05;76390.53;;;13.69
74043;BMP280;62384;53.600;10.040;2023-04-24T07:16:31;76450.72;;;13.73
74043;BMP280;62384;53.600;10.040;2023-04-24T07:18:56;76438.63;;;13.83
74043;BMP280;62384;53.600;10.040;2023-04-24T07:21:22;76490.06;;;13.91
74043;BMP280;62384;53.600;10.040;2023-04-24T07:23:47;76444.22;;;13.71
74043;BMP280;62384;53.600;10.040;2023-04-24T07:26:13;76469.81;;;13.78
74043;BMP280;62384;53.600;10.040;2023-04-24T07:28:40;76482.41;;;13.89
74043;BMP280;62384;53.600;10.040;2023-04-24T07:31:06;76560.41;;;14.01
74043;BMP280;62384;53.600;10.040;2023-04-24T07:33:31;76574.00;;;13.96
74043;BMP280;62384;53.600;10.040;2023-04-24T07:35:57;76532.69;;;13.95
74043;BMP280;62384;53.600;10.040;2023-04-24T07:38:22;76674.38;;;14.21
74043;BMP280;62384;53.600;10.040;2023-04-24T07:40:48;76739.03;;;14.54
74043;BMP280;62384;53.600;10.040;2023-04-24T07:43:17;76816.59;;;14.59
74043;BMP280;62384;53.600;10.040;2023-04-24T07:45:42;76916.59;;;15.11
74043;BMP280;62384;53.600;10.040;2023-04-24T07:48:07;76861.59;;;14.65
74043;BMP280;62384;53.600;10.040;2023-04-24T07:50:34;76851.59;;;14.47
74043;BMP280;62384;53.600;10.040;2023-04-24T07:53:00;76852.56;;;14.60
74043;BMP280;62384;53.600;10.040;2023-04-24T07:55:25;76830.91;;;14.36
74043;BMP280;62384;53.600;10.040;2023-04-24T07:57:51;76823.41;;;14.36
74043;BMP280;62384;53.600;10.040;2023-04-24T08:00:19;76819.41;;;14.40
74043;BMP280;62384;53.600;10.040;2023-04-24T08:02:46;76926.31;;;14.77
74043;BMP280;62384;53.600;10.040;2023-04-24T08:05:11;76870.00;;;14.63
74043;BMP280;62384;53.600;10.040;2023-04-24T08:07:38;76937.25;;;14.87
74043;BMP280;62384;53.600;10.040;2023-04-24T08:10:03;76957.97;;;14.98
74043;BMP280;62384;53.600;10.040;2023-04-24T08:12:29;77024.69;;;15.35
74043;BMP280;62384;53.600;10.040;2023-04-24T08:14:54;76949.47;;;14.86
74043;BMP280;62384;53.600;10.040;2023-04-24T08:17:20;77075.13;;;15.49
74043;BMP280;62384;53.600;10.040;2023-04-24T08:19:45;77074.78;;;15.65
74043;BMP280;62384;53.600;10.040;2023-04-24T08:22:14;77040.97;;;15.23
74043;BMP280;62384;53.600;10.040;2023-04-24T08:24:40;77072.06;;;15.51
74043;BMP280;62384;53.600;10.040;2023-04-24T08:27:05;77058.94;;;15.13
74043;BMP280;62384;53.600;10.040;2023-04-24T08:29:31;76983.94;;;14.81
74043;BMP280;62384;53.600;10.040;2023-04-24T08:31:56;77001.03;;;14.93
74043;BMP280;62384;53.600;10.040;2023-04-24T08:34:22;76992.56;;;14.81
74043;BMP280;62384;53.600;10.040;2023-04-24T08:36:47;76988.97;;;14.97
74043;BMP280;62384;53.600;10.040;2023-04-24T08:39:13;76918.72;;;14.35
74043;BMP280;62384;53.600;10.040;2023-04-24T08:41:42;76911.09;;;14.40
74043;BMP280;62384;53.600;10.040;2023-04-24T08:44:09;76959.97;;;14.69
74043;BMP280;62384;53.600;10.040;2023-04-24T08:46:35;76961.69;;;14.64
74043;BMP280;62384;53.600;10.040;2023-04-24T08:49:01;76996.06;;;14.91
74043;BMP280;62384;53.600;10.040;2023-04-24T08:51:28;76983.00;;;14.75
74043;BMP280;62384;53.600;10.040;2023-04-24T08:53:55;76964.06;;;14.87
74043;BMP280;62384;53.600;10.040;2023-04-24T08:56:22;76938.06;;;14.43
74043;BMP280;62384;53.600;10.040;2023-04-24T08:58:50;76935.66;;;14.60
74043;BMP280;62384;53.600;10.040;2023-04-24T09:01:16;76906.69;;;14.46
74043;BMP280;62384;53.600;10.040;2023-04-24T09:03:41;76904.56;;;14.39
74043;BMP280;62384;53.600;10.040;2023-04-24T09:06:08;76885.25;;;14.39
74043;BMP280;62384;53.600;10.040;2023-04-24T09:08:34;77022.88;;;14.91
74043;BMP280;62384;53.600;10.040;2023-04-24T09:11:00;77046.72;;;15.21
74043;BMP280;62384;53.600;10.040;2023-04-24T09:13:28;76987.22;;;14.81
74043;BMP280;62384;53.600;10.040;2023-04-24T09:15:53;76980.13;;;14.87
74043;BMP280;62384;53.600;10.040;2023-04-24T09:18:19;76959.03;;;14.78
74043;BMP280;62384;53.600;10.040;2023-04-24T09:21:17;76988.34;;;14.82
74043;BMP280;62384;53.600;10.040;2023-04-24T09:23:45;76946.16;;;14.57
74043;BMP280;62384;53.600;10.040;2023-04-24T09:26:10;76933.34;;;14.58
74043;BMP280;62384;53.600;10.040;2023-04-24T09:28:37;76932.31;;;14.38
74043;BMP280;62384;53.600;10.040;2023-04-24T09:33:29;76890.38;;;14.29
74043;BMP280;62384;53.600;10.040;2023-04-24T09:35:55;76916.44;;;14.40
74043;BMP280;62384;53.600;10.040;2023-04-24T09:38:34;76947.31;;;14.58
74043;BMP280;62384;53.600;10.040;2023-04-24T09:41:06;76921.59;;;14.38
74043;BMP280;62384;53.600;10.040;2023-04-24T09:43:32;76909.91;;;14.39
74043;BMP280;62384;53.600;10.040;2023-04-24T09:46:05;76908.97;;;14.41
74043;BMP280;62384;53.600;10.040;2023-04-24T09:48:35;76918.72;;;14.42
74043;BMP280;62384;53.600;10.040;2023-04-24T09:51:02;76891.75;;;14.40
74043;BMP280;62384;53.600;10.040;2023-04-24T09:53:29;76894.03;;;14.35
74043;BMP280;62384;53.600;10.040;2023-04-24T09:55:55;76851.84;;;14.10
74043;BMP280;62384;53.600;10.040;2023-04-24T09:58:26;76863.91;;;14.13
74043;BMP280;62384;53.600;10.040;2023-04-24T10:00:56;76869.09;;;14.11
74043;BMP280;62384;53.600;10.040;2023-04-24T10:03:29;76835.78;;;14.10
74043;BMP280;62384;53.600;10.040;2023-04-24T10:05:58;76814.53;;;13.98
74043;BMP280;62384;53.600;10.040;2023-04-24T10:08:24;76825.47;;;14.08
74043;BMP280;62384;53.600;10.040;2023-04-24T10:10:50;76825.63;;;13.96
74043;BMP280;62384;53.600;10.040;2023-04-24T10:13:15;76820.47;;;14.13
74043;BMP280;62384;53.600;10.040;2023-04-24T10:15:42;76807.09;;;13.99
74043;BMP280;62384;53.600;10.040;2023-04-24T10:18:08;76845.38;;;14.09
74043;BMP280;62384;53.600;10.040;2023-04-24T10:20:36;76800.94;;;13.96
74043;BMP280;62384;53.600;10.040;2023-04-24T10:23:04;76826.84;;;14.18
74043;BMP280;62384;53.600;10.040;2023-04-24T10:25:31;76819.16;;;14.16
74043;BMP280;62384;53.600;10.040;2023-04-24T10:27:58;76883.91;;;14.42
74043;BMP280;62384;53.600;10.040;2023-04-24T10:33:50;76878.19;;;14.44
74043;BMP280;62384;53.600;10.040;2023-04-24T10:36:17;76849.06;;;14.28
74043;BMP280;62384;53.600;10.040;2023-04-24T10:38:43;76859.22;;;14.35
74043;BMP280;62384;53.600;10.040;2023-04-24T10:41:12;76842.69;;;14.09
74043;BMP280;62384;53.600;10.040;2023-04-24T10:43:48;76813.81;;;14.16
74043;BMP280;62384;53.600;10.040;2023-04-24T10:46:22;76832.97;;;14.21
74043;BMP280;62384;53.600;10.040;2023-04-24T10:48:54;76869.91;;;14.28
74043;BMP280;62384;53.600;10.040;2023-04-24T10:51:26;76878.75;;;14.45
74043;BMP280;62384;53.600;10.040;2023-04-24T10:56:47;76816.09;;;14.04
74043;BMP280;62384;53.600;10.040;2023-04-24T10:59:23;76765.72;;;13.84
74043;BMP280;62384;53.600;10.040;2023-04-24T11:01:53;76811.53;;;14.14
74043;BMP280;62384;53.600;10.040;2023-04-24T11:04:29;76836.22;;;14.22
74043;BMP280;62384;53.600;10.040;2023-04-24T11:06:55;76891.41;;;14.42
74043;BMP280;62384;53.600;10.040;2023-04-24T11:09:21;76980.41;;;15.10
74043;BMP280;62384;53.600;10.040;2023-04-24T11:11:46;77270.94;;;16.07
74043;BMP280;62384;53.600;10.040;2023-04-24T11:14:15;77284.38;;;16.82
74043;BMP280;62384;53.600;10.040;2023-04-24T11:27:07;77099.88;;;15.49
74043;BMP280;62384;53.600;10.040;2023-04-24T11:29:39;77027.69;;;14.98
74043;BMP280;62384;53.600;10.040;2023-04-24T11:32:26;77078.50;;;15.16
74043;BMP280;62384;53.600;10.040;2023-04-24T11:34:54;77071.59;;;15.10
74043;BMP280;62384;53.600;10.040;2023-04-24T11:37:22;77059.72;;;15.23
74043;BMP280;62384;53.600;10.040;2023-04-24T11:39:50;77060.69;;;15.22
74043;BMP280;62384;53.600;10.040;2023-04-24T11:42:20;77075.69;;;15.28
74043;BMP280;62384;53.600;10.040;2023-04-24T11:44:46;77125.34;;;15.46
74043;BMP280;62384;53.600;10.040;2023-04-24T11:47:12;77318.38;;;16.83
74043;BMP280;62384;53.600;10.040;2023-04-24T11:49:38;77412.13;;;17.60
74043;BMP280;62384;53.600;10.040;2023-04-24T11:52:04;77319.97;;;17.25
74043;BMP280;62384;53.600;10.040;2023-04-24T11:54:30;77250.94;;;16.74
74043;BMP280;62384;53.600;10.040;2023-04-24T11:56:56;77175.59;;;16.10
74043;BMP280;62384;53.600;10.040;2023-04-24T11:59:21;77126.97;;;15.73
74043;BMP280;62384;53.600;10.040;2023-04-24T12:01:48;77089.72;;;15.57
74043;BMP280;62384;53.600;10.040;2023-04-24T12:04:15;77098.69;;;15.41
74043;BMP280;62384;53.600;10.040;2023-04-24T12:06:58;77057.97;;;15.08
74043;BMP280;62384;53.600;10.040;2023-04-24T12:09:24;76996.75;;;14.73
74043;BMP280;62384;53.600;10.040;2023-04-24T12:11:56;77042.34;;;14.80
74043;BMP280;62384;53.600;10.040;2023-04-24T12:14:22;77168.59;;;15.83
74043;BMP280;62384;53.600;10.040;2023-04-24T12:16:48;77186.13;;;16.01
74043;BMP280;62384;53.600;10.040;2023-04-24T12:19:21;77135.94;;;15.57
74043;BMP280;62384;53.600;10.040;2023-04-24T12:22:04;77127.38;;;15.71
74043;BMP280;62384;53.600;10.040;2023-04-24T12:24:30;77120.97;;;15.58
74043;BMP280;62384;53.600;10.040;2023-04-24T12:26:56;77093.56;;;15.58
74043;BMP280;62384;53.600;10.040;2023-04-24T12:29:22;77085.84;;;15.42
74043;BMP280;62384;53.600;10.040;2023-04-24T12:31:48;77082.75;;;15.22
74043;BMP280;62384;53.600;10.040;2023-04-24T12:34:24;77088.66;;;15.16
74043;BMP280;62384;53.600;10.040;2023-04-24T12:36:50;77043.94;;;15.00
74043;BMP280;62384;53.600;10.040;2023-04-24T12:39:19;77025.97;;;15.03
74043;BMP280;62384;53.600;10.040;2023-04-24T12:41:57;77060.09;;;15.14
74043;BMP280;62384;53.600;10.040;2023-04-24T12:44:40;77069.28;;;15.08
74043;BMP280;62384;53.600;10.040;2023-04-24T12:47:06;77075.63;;;15.14
74043;BMP280;62384;53.600;10.040;2023-04-24T12:49:32;76994.63;;;14.67
74043;BMP280;62384;53.600;10.040;2023-04-24T12:51:58;76963.00;;;14.53
74043;BMP280;62384;53.600;10.040;2023-04-24T12:54:23;76998.03;;;14.56
74043;BMP280;62384;53.600;10.040;2023-04-24T12:56:48;76949.22;;;14.55
74043;BMP280;62384;53.600;10.040;2023-04-24T12:59:13;76983.16;;;14.31
74043;BMP280;62384;53.600;10.040;2023-04-24T13:01:40;76930.72;;;14.25
74043;BMP280;62384;53.600;10.040;2023-04-24T13:04:05;76935.31;;;14.22
74043;BMP280;62384;53.600;10.040;2023-04-24T13:06:31;76908.66;;;14.10
74043;BMP280;62384;53.600;10.040;2023-04-24T13:08:56;76877.81;;;13.93
74043;BMP280;62384;53.600;10.040;2023-04-24T13:11:23;76808.69;;;13.65
74043;BMP280;62384;53.600;10.040;2023-04-24T13:13:48;76693.78;;;13.53
74043;BMP280;62384;53.600;10.040;2023-04-24T13:16:14;76620.22;;;13.36
74043;BMP280;62384;53.600;10.040;2023-04-24T13:18:39;76550.47;;;13.33
74043;BMP280;62384;53.600;10.040;2023-04-24T13:21:05;76667.59;;;13.40
74043;BMP280;62384;53.600;10.040;2023-04-24T13:23:30;76689.53;;;13.40
74043;BMP280;62384;53.600;10.040;2023-04-24T13:25:55;76672.00;;;13.48
74043;BMP280;62384;53.600;10.040;2023-04-24T13:28:24;76675.44;;;13.51
74043;BMP280;62384;53.600;10.040;2023-04-24T13:30:49;76346.13;;;13.25
74043;BMP280;62384;53.600;10.040;2023-04-24T13:33:15;76176.63;;;13.10
74043;BMP280;62384;53.600;10.040;2023-04-24T13:35:40;75940.91;;;13.03
74043;BMP280;62384;53.600;10.040;2023-04-24T13:38:05;75932.19;;;13.00
74043;BMP280;62384;53.600;10.040;2023-04-24T13:40:31;75894.03;;;12.97
74043;BMP280;62384;53.600;10.040;2023-04-24T13:42:57;76086.03;;;12.91
74043;BMP280;62384;53.600;10.040;2023-04-24T13:45:22;76051.22;;;13.06
74043;BMP280;62384;53.600;10.040;2023-04-24T13:47:47;76100.41;;;13.14
74043;BMP280;62384;53.600;10.040;2023-04-24T13:50:12;76353.59;;;13.18
74043;BMP280;62384;53.600;10.040;2023-04-24T13:52:38;76333.91;;;13.26
74043;BMP280;62384;53.600;10.040;2023-04-24T13:55:03;76443.13;;;13.21
74043;BMP280;62384;53.600;10.040;2023-04-24T13:57:29;76469.13;;;13.18
74043;BMP280;62384;53.600;10.040;2023-04-24T13:59:55;76500.59;;;13.11
74043;BMP280;62384;53.600;10.040;2023-04-24T14:02:27;76499.66;;;13.12
74043;BMP280;62384;53.600;10.040;2023-04-24T14:04:52;76534.44;;;13.33
74043;BMP280;62384;53.600;10.040;2023-04-24T14:07:17;76588.31;;;13.52
74043;BMP280;62384;53.600;10.040;2023-04-24T14:09:43;76611.06;;;13.56
74043;BMP280;62384;53.600;10.040;2023-04-24T14:12:08;76637.22;;;13.41